sensor_id;sensor_type;location;lat;lon;timestamp;pressure;altitude;pressure_sealevel;temperature
49557;BMP280;35462;45.048;7.666;2023-09-08T00:09:03;99449.91;;;25.51
49557;BMP280;35462;45.048;7.666;2023-09-08T00:24:22;99438.75;;;25.38
49557;BMP280;35462;45.048;7.666;2023-09-08T00:39:42;99439.00;;;25.29
49557;BMP280;35462;45.048;7.666;2023-09-08T00:55:02;99424.66;;;25.23
49557;BMP280;35462;45.048;7.666;2023-09-08T01:10:21;99425.41;;;25.18
49557;BMP280;35462;45.048;7.666;2023-09-08T01:25:50;99418.47;;;25.11
49557;BMP280;35462;45.048;7.666;2023-09-08T01:41:10;99404.63;;;24.98
49557;BMP280;35462;45.048;7.666;2023-09-08T01:56:29;99392.72;;;24.85
49557;BMP280;35462;45.048;7.666;2023-09-08T02:11:49;99375.44;;;24.72
49557;BMP280;35462;45.048;7.666;2023-09-08T02:27:08;99374.91;;;24.62
49557;BMP280;35462;45.048;7.666;2023-09-08T02:42:28;99379.56;;;24.56
49557;BMP280;35462;45.048;7.666;2023-09-08T02:57:49;99383.69;;;24.52
49557;BMP280;35462;45.048;7.666;2023-09-08T03:13:09;99374.81;;;24.46
49557;BMP280;35462;45.048;7.666;2023-09-08T03:28:28;99378.94;;;24.36
49557;BMP280;35462;45.048;7.666;2023-09-08T03:43:48;99355.25;;;24.26
49557;BMP280;35462;45.048;7.666;2023-09-08T03:59:08;99349.75;;;24.15
49557;BMP280;35462;45.048;7.666;2023-09-08T04:14:28;99355.09;;;24.04
49557;BMP280;35462;45.048;7.666;2023-09-08T04:29:49;99358.75;;;23.95
49557;BMP280;35462;45.048;7.666;2023-09-08T04:45:09;99364.81;;;23.85
49557;BMP280;35462;45.048;7.666;2023-09-08T05:00:29;99360.31;;;23.76
49557;BMP280;35462;45.048;7.666;2023-09-08T05:15:49;99361.50;;;23.70
49557;BMP280;35462;45.048;7.666;2023-09-08T05:31:11;99391.03;;;23.73
49557;BMP280;35462;45.048;7.666;2023-09-08T05:46:31;99397.19;;;23.74
49557;BMP280;35462;45.048;7.666;2023-09-08T06:01:50;99398.84;;;23.66
49557;BMP280;35462;45.048;7.666;2023-09-08T06:17:10;99398.19;;;24.43
49557;BMP280;35462;45.048;7.666;2023-09-08T06:32:30;99393.78;;;24.98
49557;BMP280;35462;45.048;7.666;2023-09-08T06:47:49;99392.03;;;24.85
49557;BMP280;35462;45.048;7.666;2023-09-08T07:03:14;99401.78;;;25.78
49557;BMP280;35462;45.048;7.666;2023-09-08T07:18:33;99409.97;;;26.84
49557;BMP280;35462;45.048;7.666;2023-09-08T07:33:55;99397.66;;;27.82
49557;BMP280;35462;45.048;7.666;2023-09-08T07:49:14;99410.41;;;28.21
49557;BMP280;35462;45.048;7.666;2023-09-08T08:04:34;99408.91;;;28.44
49557;BMP280;35462;45.048;7.666;2023-09-08T08:19:54;99416.19;;;28.12
49557;BMP280;35462;45.048;7.666;2023-09-08T08:35:13;99411.13;;;27.98
49557;BMP280;35462;45.048;7.666;2023-09-08T08:50:34;99419.13;;;28.14
49557;BMP280;35462;45.048;7.666;2023-09-08T09:05:54;99404.09;;;28.08
49557;BMP280;35462;45.048;7.666;2023-09-08T09:21:13;99390.41;;;28.13
49557;BMP280;35462;45.048;7.666;2023-09-08T09:36:32;99387.91;;;28.15
49557;BMP280;35462;45.048;7.666;2023-09-08T09:51:53;99372.25;;;28.21
49557;BMP280;35462;45.048;7.666;2023-09-08T10:07:13;99356.94;;;28.55
49557;BMP280;35462;45.048;7.666;2023-09-08T10:22:36;99348.03;;;28.73
49557;BMP280;35462;45.048;7.666;2023-09-08T10:53:40;99326.03;;;28.84
49557;BMP280;35462;45.048;7.666;2023-09-08T11:09:08;99308.50;;;29.10
49557;BMP280;35462;45.048;7.666;2023-09-08T11:24:29;99294.88;;;29.10
49557;BMP280;35462;45.048;7.666;2023-09-08T11:39:48;99282.09;;;29.31
49557;BMP280;35462;45.048;7.666;2023-09-08T11:55:08;99275.63;;;29.60
49557;BMP280;35462;45.048;7.666;2023-09-08T12:10:28;99263.13;;;29.51
49557;BMP280;35462;45.048;7.666;2023-09-08T12:25:50;99259.22;;;29.60
49557;BMP280;35462;45.048;7.666;2023-09-08T12:41:09;99246.53;;;29.49
49557;BMP280;35462;45.048;7.666;2023-09-08T12:56:31;99229.81;;;29.40
49557;BMP280;35462;45.048;7.666;2023-09-08T13:11:50;99215.84;;;29.43
49557;BMP280;35462;45.048;7.666;2023-09-08T13:27:10;99201.88;;;29.34
49557;BMP280;35462;45.048;7.666;2023-09-08T13:42:30;99186.94;;;29.48
49557;BMP280;35462;45.048;7.666;2023-09-08T13:57:50;99163.53;;;29.52
49557;BMP280;35462;45.048;7.666;2023-09-08T14:13:10;99152.31;;;29.56
49557;BMP280;35462;45.048;7.666;2023-09-08T14:28:29;99149.03;;;29.57
49557;BMP280;35462;45.048;7.666;2023-09-08T14:43:51;99136.50;;;29.62
49557;BMP280;35462;45.048;7.666;2023-09-08T14:59:10;99125.19;;;29.58
49557;BMP280;35462;45.048;7.666;2023-09-08T15:14:29;99111.75;;;29.60
49557;BMP280;35462;45.048;7.666;2023-09-08T15:29:49;99107.97;;;29.50
49557;BMP280;35462;45.048;7.666;2023-09-08T15:45:09;99101.50;;;29.40
49557;BMP280;35462;45.048;7.666;2023-09-08T16:00:29;99088.88;;;29.37
49557;BMP280;35462;45.048;7.666;2023-09-08T16:15:50;99085.22;;;29.35
49557;BMP280;35462;45.048;7.666;2023-09-08T16:31:09;99083.66;;;29.26
49557;BMP280;35462;45.048;7.666;2023-09-08T16:46:28;99088.28;;;29.18
49557;BMP280;35462;45.048;7.666;2023-09-08T17:01:49;99083.25;;;29.09
49557;BMP280;35462;45.048;7.666;2023-09-08T17:17:08;99090.63;;;29.01
49557;BMP280;35462;45.048;7.666;2023-09-08T17:32:28;99090.09;;;28.90
49557;BMP280;35462;45.048;7.666;2023-09-08T17:47:47;99093.97;;;28.82
49557;BMP280;35462;45.048;7.666;2023-09-08T18:03:07;99109.91;;;28.65
49557;BMP280;35462;45.048;7.666;2023-09-08T18:18:27;99129.03;;;28.46
49557;BMP280;35462;45.048;7.666;2023-09-08T18:33:47;99138.16;;;28.36
49557;BMP280;35462;45.048;7.666;2023-09-08T18:49:06;99153.41;;;28.26
49557;BMP280;35462;45.048;7.666;2023-09-08T19:04:26;99160.78;;;28.13
49557;BMP280;35462;45.048;7.666;2023-09-08T19:19:45;99177.88;;;27.95
49557;BMP280;35462;45.048;7.666;2023-09-08T19:35:06;99189.44;;;27.83
49557;BMP280;35462;45.048;7.666;2023-09-08T19:50:27;99190.81;;;27.71
49557;BMP280;35462;45.048;7.666;2023-09-08T20:05:46;99209.97;;;27.60
49557;BMP280;35462;45.048;7.666;2023-09-08T20:21:06;99211.34;;;27.48
49557;BMP280;35462;45.048;7.666;2023-09-08T20:36:25;99223.03;;;27.19
49557;BMP280;35462;45.048;7.666;2023-09-08T20:51:45;99223.16;;;27.03
49557;BMP280;35462;45.048;7.666;2023-09-08T21:07:04;99229.88;;;26.96
49557;BMP280;35462;45.048;7.666;2023-09-08T21:22:23;99238.91;;;26.86
49557;BMP280;35462;45.048;7.666;2023-09-08T21:37:43;99241.94;;;26.71
49557;BMP280;35462;45.048;7.666;2023-09-08T21:53:03;99245.22;;;26.65
49557;BMP280;35462;45.048;7.666;2023-09-08T22:08:22;99254.22;;;26.49
49557;BMP280;35462;45.048;7.666;2023-09-08T22:23:41;99253.75;;;26.39
49557;BMP280;35462;45.048;7.666;2023-09-08T22:39:01;99242.44;;;26.30
49557;BMP280;35462;45.048;7.666;2023-09-08T22:54:21;99251.84;;;26.18
49557;BMP280;35462;45.048;7.666;2023-09-08T23:09:41;99249.16;;;26.12
49557;BMP280;35462;45.048;7.666;2023-09-08T23:25:01;99251.69;;;26.05
49557;BMP280;35462;45.048;7.666;2023-09-08T23:40:24;99246.03;;;25.98
49557;BMP280;35462;45.048;7.666;2023-09-08T23:55:44;99248.78;;;25.87
